Terminal Aerodrome Forecast
Issued by NWS Chicago, IL

Home | Current Version | Previous Version | Graphics & Text | Print | Product List | Glossary On
Versions: 1 2 3 4 5 6 7 8 9 10 11 12 13 14 15 16 17 18 19 20 21 22 23 24 25 26 27 28 29 30 31 32 33 34 35 36 37 38 39 40
000
FTUS43 KLOT 182300
TAFRFD
TAF
KRFD 182321Z 1900/1924 20009KT P6SM SCT035
     FM190530 19006KT 6SM BR VCSH BKN035 BKN060
     FM190700 21009KT 5SM TSRA BR OVC020CB
     FM191000 21009KT 6SM BR SCT010 BKN025
     FM191500 22011G17KT P6SM BKN035
     FM192000 27011G16KT P6SM SCT040=

USA.gov is the U.S. government's official web portal to all federal, state and local government web resources and services.